createdAt,value
2023-01-09T00:00:41.719Z,25.73
2023-01-09T00:03:09.466Z,24.83
2023-01-09T00:05:36.893Z,23.12
2023-01-09T00:08:04.428Z,27.33
2023-01-09T00:10:32.124Z,26.98
2023-01-09T00:12:59.651Z,26.12
2023-01-09T00:15:27.130Z,25.65
2023-01-09T00:17:54.797Z,23.25
2023-01-09T00:20:22.169Z,24.55
2023-01-09T00:22:49.613Z,24.90
2023-01-09T00:25:17.252Z,22.70
2023-01-09T00:27:44.644Z,24.20
2023-01-09T00:30:12.384Z,22.42
2023-01-09T00:32:40.545Z,22.92
2023-01-09T00:35:09.326Z,22.98
2023-01-09T00:37:36.766Z,22.55
2023-01-09T00:40:04.680Z,21.85
2023-01-09T00:42:33.741Z,22.90
2023-01-09T00:45:04.664Z,23.67
2023-01-09T00:47:42.852Z,23.83
2023-01-09T00:50:14.806Z,24.98
2023-01-09T00:52:43.015Z,24.92
2023-01-09T00:55:10.490Z,24.10
2023-01-09T00:57:37.958Z,22.37
2023-01-09T01:00:06.547Z,26.37
2023-01-09T01:02:33.964Z,22.85
2023-01-09T01:05:20.010Z,24.77
2023-01-09T01:07:47.640Z,22.52
2023-01-09T01:10:22.803Z,26.12
2023-01-09T01:12:51.243Z,24.67
2023-01-09T01:15:19.512Z,24.12
2023-01-09T01:17:47.296Z,27.92
2023-01-09T01:20:16.970Z,23.08
2023-01-09T01:22:44.437Z,25.52
2023-01-09T01:25:13.339Z,25.70
2023-01-09T01:27:41.421Z,27.30
2023-01-09T01:30:11.170Z,25.77
2023-01-09T01:32:38.793Z,25.50
2023-01-09T01:35:07.557Z,23.70
2023-01-09T01:37:36.095Z,25.48
2023-01-09T01:40:04.700Z,20.50
2023-01-09T01:42:32.627Z,22.85
2023-01-09T01:45:06.537Z,19.12
2023-01-09T01:47:49.414Z,23.70
2023-01-09T01:50:34.780Z,19.55
2023-01-09T01:53:17.671Z,22.30
2023-01-09T01:58:14.750Z,21.27
2023-01-09T02:00:47.220Z,19.15
2023-01-09T02:03:19.533Z,21.85
2023-01-09T02:05:47.404Z,19.12
2023-01-09T02:08:15.173Z,16.87
2023-01-09T02:10:42.725Z,16.37
2023-01-09T02:13:11.116Z,15.80
2023-01-09T02:15:41.524Z,15.63
2023-01-09T02:18:27.477Z,16.67
2023-01-09T02:21:36.711Z,17.00
2023-01-09T02:24:34.004Z,18.02
2023-01-09T02:27:24.044Z,17.00
2023-01-09T02:30:10.230Z,16.60
2023-01-09T02:33:14.995Z,14.80
2023-01-09T02:35:52.753Z,14.95
2023-01-09T02:38:36.999Z,16.55
2023-01-09T02:41:15.973Z,16.02
2023-01-09T02:43:43.607Z,15.40
2023-01-09T02:46:22.067Z,16.12
2023-01-09T02:48:51.119Z,14.02
2023-01-09T02:51:37.018Z,15.05
2023-01-09T02:54:20.472Z,16.17
2023-01-09T02:56:57.028Z,15.73
2023-01-09T02:59:34.618Z,13.80
2023-01-09T03:02:09.915Z,17.20
2023-01-09T03:05:01.591Z,15.23
2023-01-09T03:07:31.979Z,15.50
2023-01-09T03:10:10.621Z,15.82
2023-01-09T03:12:38.411Z,17.73
2023-01-09T03:15:07.218Z,18.35
2023-01-09T03:17:39.730Z,16.10
2023-01-09T03:20:09.417Z,15.98
2023-01-09T03:22:36.905Z,16.98
2023-01-09T03:25:04.579Z,17.77
2023-01-09T03:27:32.479Z,18.23
2023-01-09T03:29:59.811Z,18.48
2023-01-09T03:32:27.927Z,15.73
2023-01-09T03:34:55.567Z,17.73
2023-01-09T03:37:22.929Z,16.85
2023-01-09T03:39:50.281Z,16.00
2023-01-09T03:42:17.952Z,17.98
2023-01-09T03:44:45.297Z,18.87
2023-01-09T03:47:12.751Z,15.68
2023-01-09T03:49:40.606Z,17.20
2023-01-09T03:52:07.962Z,18.77
2023-01-09T03:54:35.392Z,19.08
2023-01-09T03:57:03.118Z,16.73
2023-01-09T03:59:30.517Z,20.30
2023-01-09T04:01:58.000Z,17.92
2023-01-09T04:04:25.777Z,23.17
2023-01-09T04:06:53.184Z,19.75
2023-01-09T04:09:20.655Z,19.40
2023-01-09T04:11:48.318Z,16.05
2023-01-09T04:14:16.333Z,18.73
2023-01-09T04:16:43.832Z,17.00
2023-01-09T04:19:11.535Z,16.77
2023-01-09T04:21:38.931Z,19.55
2023-01-09T04:24:06.660Z,17.42
2023-01-09T04:26:34.334Z,19.52
2023-01-09T04:29:01.807Z,19.33
2023-01-09T04:31:29.216Z,19.30
2023-01-09T04:33:56.904Z,15.80
2023-01-09T04:36:24.300Z,17.52
2023-01-09T04:38:51.630Z,21.30
2023-01-09T04:41:38.062Z,18.12
2023-01-09T04:44:05.663Z,16.35
2023-01-09T04:46:33.296Z,19.40
2023-01-09T04:49:00.690Z,16.33
2023-01-09T04:51:28.033Z,16.87
2023-01-09T04:53:55.643Z,16.52
2023-01-09T04:56:23.100Z,16.50
2023-01-09T04:58:50.574Z,17.27
2023-01-09T05:01:18.338Z,17.60
2023-01-09T05:03:45.709Z,15.05
2023-01-09T05:06:13.197Z,18.55
2023-01-09T05:08:40.843Z,18.00
2023-01-09T05:11:08.307Z,20.15
2023-01-09T05:13:35.704Z,18.08
2023-01-09T05:16:03.410Z,25.60
2023-01-09T05:18:30.912Z,16.20
2023-01-09T05:20:58.253Z,18.25
2023-01-09T05:23:25.937Z,15.43
2023-01-09T05:25:53.305Z,19.35
2023-01-09T05:28:20.644Z,17.00
2023-01-09T05:30:48.567Z,18.42
2023-01-09T05:33:16.001Z,17.62
2023-01-09T05:35:43.574Z,18.92
2023-01-09T05:38:11.780Z,16.92
2023-01-09T05:40:40.535Z,17.55
2023-01-09T05:43:08.570Z,17.23
2023-01-09T05:45:36.340Z,19.75
2023-01-09T05:48:03.858Z,16.05
2023-01-09T05:50:31.273Z,17.55
2023-01-09T05:52:58.919Z,16.25
2023-01-09T05:55:26.329Z,18.48
2023-01-09T05:57:53.678Z,16.20
2023-01-09T06:00:21.483Z,16.50
2023-01-09T06:02:49.155Z,17.92
2023-01-09T06:05:16.554Z,16.95
2023-01-09T06:07:43.972Z,16.95
2023-01-09T06:10:13.192Z,17.92
2023-01-09T06:12:41.849Z,15.60
2023-01-09T06:15:09.554Z,15.15
2023-01-09T06:17:37.158Z,17.10
2023-01-09T06:20:05.087Z,16.80
2023-01-09T06:22:32.476Z,19.52
2023-01-09T06:25:00.153Z,16.73
2023-01-09T06:27:27.595Z,16.87
2023-01-09T06:29:54.974Z,15.10
2023-01-09T06:32:22.645Z,18.02
2023-01-09T06:34:50.307Z,18.75
2023-01-09T06:37:17.709Z,17.90
2023-01-09T06:39:45.416Z,15.63
2023-01-09T06:42:12.748Z,19.70
2023-01-09T06:44:40.206Z,19.77
2023-01-09T06:47:07.858Z,18.62
2023-01-09T06:49:35.577Z,17.40
2023-01-09T06:52:05.725Z,17.92
2023-01-09T06:54:34.469Z,18.65
2023-01-09T06:57:01.910Z,15.93
2023-01-09T06:59:29.290Z,19.90
2023-01-09T07:01:57.212Z,18.02
2023-01-09T07:04:24.782Z,17.77
2023-01-09T07:06:52.206Z,17.30
2023-01-09T07:09:19.915Z,16.70
2023-01-09T07:11:47.812Z,15.07
2023-01-09T07:14:15.193Z,17.95
2023-01-09T07:16:43.088Z,17.33
2023-01-09T07:19:10.531Z,19.90
2023-01-09T07:21:37.933Z,20.83
2023-01-09T07:24:05.804Z,21.80
2023-01-09T07:26:33.173Z,19.87
2023-01-09T07:29:00.563Z,15.90
2023-01-09T07:31:28.350Z,18.37
2023-01-09T07:33:55.827Z,18.25
2023-01-09T07:36:23.178Z,19.58
2023-01-09T07:38:50.812Z,20.00
2023-01-09T07:41:18.213Z,20.55
2023-01-09T07:43:45.577Z,21.10
2023-01-09T07:46:13.196Z,18.67
2023-01-09T07:48:40.583Z,19.95
2023-01-09T07:51:07.988Z,16.77
2023-01-09T07:53:35.629Z,19.17
2023-01-09T07:56:03.029Z,18.00
2023-01-09T07:58:30.385Z,17.67
2023-01-09T08:00:58.064Z,18.25
2023-01-09T08:03:26.912Z,20.23
2023-01-09T08:05:54.317Z,18.35
2023-01-09T08:08:22.721Z,20.33
2023-01-09T08:10:50.434Z,18.45
2023-01-09T08:13:17.959Z,18.52
2023-01-09T08:15:45.425Z,16.70
2023-01-09T08:18:13.131Z,16.17
2023-01-09T08:20:40.509Z,16.25
2023-01-09T08:23:07.880Z,16.48
2023-01-09T08:25:35.568Z,18.10
2023-01-09T08:28:03.005Z,15.70
2023-01-09T08:30:30.412Z,15.15
2023-01-09T08:32:58.105Z,18.17
2023-01-09T08:35:25.467Z,17.67
2023-01-09T08:37:52.924Z,19.90
2023-01-09T08:40:20.603Z,20.80
2023-01-09T08:43:06.659Z,18.77
2023-01-09T08:45:53.157Z,19.25
2023-01-09T08:48:20.529Z,19.25
2023-01-09T08:50:48.379Z,18.85
2023-01-09T08:53:15.820Z,15.65
2023-01-09T08:55:43.558Z,19.55
2023-01-09T08:58:11.275Z,18.70
2023-01-09T09:00:38.692Z,21.27
2023-01-09T09:03:06.145Z,18.37
2023-01-09T09:05:33.904Z,17.30
2023-01-09T09:08:02.658Z,17.73
2023-01-09T09:10:30.840Z,17.73
2023-01-09T09:12:59.343Z,23.58
2023-01-09T09:15:27.869Z,19.98
2023-01-09T09:18:03.099Z,21.00
2023-01-09T09:20:32.759Z,18.02
2023-01-09T09:23:00.185Z,19.00
2023-01-09T09:25:27.980Z,16.98
2023-01-09T09:28:00.861Z,17.73
2023-01-09T09:30:28.291Z,19.77
2023-01-09T09:32:55.947Z,18.73
2023-01-09T09:35:23.471Z,18.30
2023-01-09T09:37:56.053Z,18.08
2023-01-09T09:41:01.197Z,18.52
2023-01-09T09:43:56.389Z,20.45
2023-01-09T09:47:12.176Z,20.70
2023-01-09T09:49:55.227Z,17.48
2023-01-09T09:52:47.767Z,22.05
2023-01-09T09:55:29.328Z,20.05
2023-01-09T09:57:58.785Z,18.77
2023-01-09T10:00:26.242Z,19.73
2023-01-09T10:03:02.530Z,18.15
2023-01-09T10:05:50.322Z,19.90
2023-01-09T10:08:57.134Z,23.10
2023-01-09T10:11:32.899Z,17.98
2023-01-09T10:14:13.163Z,20.15
2023-01-09T10:17:08.410Z,18.65
2023-01-09T10:19:39.049Z,19.02
2023-01-09T10:22:38.572Z,18.75
2023-01-09T10:25:16.520Z,19.50
2023-01-09T10:28:06.640Z,17.60
2023-01-09T10:30:45.232Z,23.20
2023-01-09T10:33:30.763Z,17.05
2023-01-09T10:36:11.461Z,23.95
2023-01-09T10:38:41.056Z,20.50
2023-01-09T10:41:22.440Z,19.62
2023-01-09T10:44:18.542Z,21.55
2023-01-09T10:46:54.590Z,21.02
2023-01-09T10:49:23.573Z,20.88
2023-01-09T10:51:53.329Z,19.60
2023-01-09T10:54:23.573Z,18.87
2023-01-09T10:56:56.335Z,19.40
2023-01-09T10:59:24.483Z,19.92
2023-01-09T11:01:53.648Z,20.58
2023-01-09T11:04:30.246Z,19.48
2023-01-09T11:07:21.801Z,23.60
2023-01-09T11:10:08.232Z,21.35
2023-01-09T11:12:36.555Z,26.35
2023-01-09T11:15:16.111Z,23.70
2023-01-09T11:17:43.904Z,20.73
2023-01-09T11:20:21.810Z,20.75
2023-01-09T11:22:51.599Z,21.15
2023-01-09T11:25:21.614Z,21.62
2023-01-09T11:28:01.399Z,22.20
2023-01-09T11:30:29.782Z,21.42
2023-01-09T11:32:58.575Z,19.48
2023-01-09T11:35:34.114Z,20.83
2023-01-09T11:38:06.712Z,22.00
2023-01-09T11:40:46.166Z,27.48
2023-01-09T11:43:19.798Z,20.62
2023-01-09T11:46:01.206Z,20.73
2023-01-09T11:48:29.652Z,21.10
2023-01-09T11:50:58.897Z,23.15
2023-01-09T11:53:27.191Z,22.02
2023-01-09T11:56:01.221Z,27.30
2023-01-09T11:58:33.068Z,27.58
2023-01-09T12:01:31.490Z,19.05
2023-01-09T12:04:11.387Z,23.77
2023-01-09T12:07:16.170Z,24.45
2023-01-09T12:10:19.064Z,21.52
2023-01-09T12:12:52.946Z,21.98
2023-01-09T12:15:24.742Z,23.05
2023-01-09T12:18:29.652Z,23.45
2023-01-09T12:21:34.431Z,22.17
2023-01-09T12:24:13.972Z,22.40
2023-01-09T12:27:00.421Z,23.10
2023-01-09T12:29:40.827Z,21.42
2023-01-09T12:32:13.868Z,20.12
2023-01-09T12:35:04.467Z,22.37
2023-01-09T12:37:59.282Z,23.58
2023-01-09T12:40:42.979Z,27.25
2023-01-09T12:43:20.280Z,23.35
2023-01-09T12:46:09.135Z,23.15
2023-01-09T12:49:06.660Z,25.95
2023-01-09T12:51:53.031Z,24.30
2023-01-09T12:54:30.315Z,22.13
2023-01-09T12:57:01.401Z,23.33
2023-01-09T12:59:34.786Z,22.45
2023-01-09T13:02:35.211Z,22.15
2023-01-09T13:05:25.505Z,22.48
2023-01-09T13:08:32.201Z,21.10
2023-01-09T13:11:19.895Z,21.58
2023-01-09T13:14:22.273Z,23.90
2023-01-09T13:16:52.162Z,23.62
2023-01-09T13:19:25.290Z,20.98
2023-01-09T13:21:53.578Z,26.58
2023-01-09T13:24:39.381Z,21.17
2023-01-09T13:27:14.644Z,21.73
2023-01-09T13:29:44.553Z,26.67
2023-01-09T13:32:15.149Z,24.58
2023-01-09T13:34:45.673Z,24.00
2023-01-09T13:37:26.325Z,21.20
2023-01-09T13:40:02.167Z,21.77
2023-01-09T13:42:47.833Z,22.27
2023-01-09T13:45:17.940Z,24.63
2023-01-09T13:47:45.774Z,24.05
2023-01-09T13:50:27.083Z,25.95
2023-01-09T13:52:54.870Z,24.75
2023-01-09T13:55:26.122Z,26.48
2023-01-09T13:58:05.544Z,25.75
2023-01-09T14:00:36.115Z,31.65
2023-01-09T14:03:08.470Z,25.75
2023-01-09T14:05:35.816Z,25.02
2023-01-09T14:08:18.755Z,26.10
2023-01-09T14:10:48.721Z,23.35
2023-01-09T14:13:18.833Z,24.65
2023-01-09T14:15:47.647Z,24.42
2023-01-09T14:18:30.524Z,22.87
2023-01-09T14:23:52.859Z,25.45
2023-01-09T14:26:24.535Z,26.10
2023-01-09T14:28:52.120Z,27.00
2023-01-09T14:31:37.774Z,32.95
2023-01-09T14:34:34.154Z,30.90
2023-01-09T14:37:02.405Z,31.80
2023-01-09T14:39:32.067Z,24.50
2023-01-09T14:42:09.180Z,27.52
2023-01-09T14:44:42.998Z,27.13
2023-01-09T14:47:51.778Z,37.72
2023-01-09T14:50:22.298Z,111.43
2023-01-09T14:52:55.600Z,75.03
2023-01-09T14:55:28.887Z,50.12
2023-01-09T14:57:57.039Z,39.90
2023-01-09T15:00:25.123Z,43.17
2023-01-09T15:02:53.313Z,29.67
2023-01-09T15:05:23.971Z,32.20
2023-01-09T15:07:57.580Z,30.15
2023-01-09T15:10:52.160Z,33.17
2023-01-09T15:13:28.735Z,33.78
2023-01-09T15:15:56.287Z,35.28
2023-01-09T15:18:25.403Z,32.65
2023-01-09T15:20:54.749Z,41.33
2023-01-09T15:23:29.386Z,38.28
2023-01-09T15:26:20.104Z,38.40
2023-01-09T15:28:47.442Z,36.85
2023-01-09T15:31:17.318Z,36.45
2023-01-09T15:33:46.522Z,39.25
2023-01-09T15:36:21.290Z,37.25
2023-01-09T15:38:50.257Z,31.55
2023-01-09T15:41:38.811Z,33.30
2023-01-09T15:44:11.031Z,38.95
2023-01-09T15:46:39.571Z,35.60
2023-01-09T15:49:11.165Z,38.42
2023-01-09T15:51:38.626Z,35.10
2023-01-09T15:54:06.060Z,37.67
2023-01-09T15:56:35.452Z,32.20
2023-01-09T15:59:02.882Z,35.67
2023-01-09T16:01:35.292Z,34.00
2023-01-09T16:04:18.381Z,36.30
2023-01-09T16:06:48.428Z,33.70
2023-01-09T16:09:24.109Z,35.38
2023-01-09T16:11:54.029Z,44.97
2023-01-09T16:14:35.289Z,49.05
2023-01-09T16:17:06.864Z,41.83
2023-01-09T16:19:46.452Z,46.40
2023-01-09T16:22:23.252Z,41.63
2023-01-09T16:24:54.849Z,34.08
2023-01-09T16:27:24.168Z,35.22
2023-01-09T16:29:57.547Z,33.03
2023-01-09T16:32:31.447Z,59.65
2023-01-09T16:35:06.084Z,38.10
2023-01-09T16:37:34.212Z,32.85
2023-01-09T16:40:04.725Z,29.02
2023-01-09T16:42:51.438Z,30.33
2023-01-09T16:45:19.727Z,30.15
2023-01-09T16:47:47.159Z,32.25
2023-01-09T16:50:14.564Z,32.65
2023-01-09T16:52:42.363Z,31.67
2023-01-09T16:55:11.302Z,36.80
2023-01-09T16:57:39.012Z,33.13
2023-01-09T17:00:07.541Z,30.27
2023-01-09T17:02:35.008Z,32.05
2023-01-09T17:05:03.082Z,32.58
2023-01-09T17:07:31.114Z,29.85
2023-01-09T17:09:58.794Z,32.83
2023-01-09T17:12:26.158Z,31.67
2023-01-09T17:14:53.927Z,34.47
2023-01-09T17:17:21.715Z,31.60
2023-01-09T17:19:49.168Z,31.17
2023-01-09T17:22:16.858Z,32.33
2023-01-09T17:25:02.693Z,31.20
2023-01-09T17:27:52.081Z,32.63
2023-01-09T17:30:20.360Z,25.90
2023-01-09T17:32:48.791Z,27.33
2023-01-09T17:35:16.424Z,29.23
2023-01-09T17:37:44.055Z,28.08
2023-01-09T17:40:22.781Z,28.58
2023-01-09T17:42:50.206Z,30.75
2023-01-09T17:45:18.061Z,31.15
2023-01-09T17:47:45.471Z,28.90
2023-01-09T17:50:20.884Z,30.62
2023-01-09T17:52:49.216Z,29.48
2023-01-09T17:55:16.905Z,28.30
2023-01-09T17:57:44.818Z,29.15
2023-01-09T18:00:28.288Z,30.20
2023-01-09T18:02:57.158Z,32.42
2023-01-09T18:05:25.504Z,32.78
2023-01-09T18:07:53.710Z,28.70
2023-01-09T18:10:23.911Z,29.42
2023-01-09T18:12:52.158Z,30.83
2023-01-09T18:15:20.171Z,31.40
2023-01-09T18:17:48.061Z,33.50
2023-01-09T18:20:15.486Z,34.47
2023-01-09T18:22:42.970Z,36.60
2023-01-09T18:25:11.051Z,41.33
2023-01-09T18:27:38.668Z,45.85
2023-01-09T18:30:07.038Z,55.72
2023-01-09T18:32:34.803Z,58.15
2023-01-09T18:35:04.064Z,52.22
2023-01-09T18:37:31.693Z,50.72
2023-01-09T18:39:59.375Z,39.42
2023-01-09T18:42:26.969Z,36.40
2023-01-09T18:44:54.319Z,41.08
2023-01-09T18:47:21.951Z,34.60
2023-01-09T18:49:49.308Z,32.05
2023-01-09T18:52:16.796Z,25.92
2023-01-09T18:54:44.454Z,27.77
2023-01-09T18:57:12.167Z,26.58
2023-01-09T18:59:39.504Z,23.95
2023-01-09T19:02:08.298Z,23.77
2023-01-09T19:04:35.733Z,22.35
2023-01-09T19:07:03.129Z,25.90
2023-01-09T19:09:30.783Z,25.20
2023-01-09T19:11:58.194Z,23.83
2023-01-09T19:14:25.610Z,24.37
2023-01-09T19:16:54.502Z,27.02
2023-01-09T19:19:21.882Z,26.30
2023-01-09T19:21:49.376Z,25.20
2023-01-09T19:24:17.745Z,26.73
2023-01-09T19:26:47.733Z,25.67
2023-01-09T19:29:15.369Z,28.40
2023-01-09T19:31:44.908Z,30.73
2023-01-09T19:34:13.282Z,23.52
2023-01-09T19:36:40.689Z,26.92
2023-01-09T19:39:08.615Z,23.45
2023-01-09T19:41:35.973Z,27.58
2023-01-09T19:44:03.372Z,24.52
2023-01-09T19:46:33.479Z,26.67
2023-01-09T19:49:04.649Z,28.75
2023-01-09T19:51:33.015Z,27.87
2023-01-09T19:56:34.988Z,24.55
2023-01-09T19:59:04.305Z,26.45
2023-01-09T20:01:36.343Z,24.17
2023-01-09T20:04:09.980Z,24.42
2023-01-09T20:06:41.321Z,25.12
2023-01-09T20:09:11.075Z,28.73
2023-01-09T20:11:41.075Z,23.85
2023-01-09T20:14:13.648Z,27.87
2023-01-09T20:16:41.857Z,25.90
2023-01-09T20:19:11.778Z,27.65
2023-01-09T20:21:39.168Z,26.27
2023-01-09T20:24:08.347Z,25.23
2023-01-09T20:26:37.282Z,23.95
2023-01-09T20:29:04.749Z,21.33
2023-01-09T20:31:32.987Z,20.25
2023-01-09T20:34:01.486Z,21.20
2023-01-09T20:36:30.515Z,20.30
2023-01-09T20:38:59.964Z,17.90
2023-01-09T20:41:29.403Z,17.12
2023-01-09T20:44:02.146Z,17.02
2023-01-09T20:46:31.327Z,16.35
2023-01-09T20:48:59.471Z,13.88
2023-01-09T20:51:26.892Z,12.05
2023-01-09T20:53:58.425Z,14.10
2023-01-09T20:56:26.946Z,17.48
2023-01-09T20:58:55.066Z,15.77
2023-01-09T21:01:23.220Z,16.65
2023-01-09T21:03:51.858Z,13.73
2023-01-09T21:06:20.826Z,16.02
2023-01-09T21:08:50.745Z,17.10
2023-01-09T21:11:18.947Z,16.23
2023-01-09T21:13:46.793Z,16.17
2023-01-09T21:16:16.864Z,15.57
2023-01-09T21:18:44.564Z,17.77
2023-01-09T21:21:16.077Z,18.65
2023-01-09T21:23:51.903Z,16.20
2023-01-09T21:26:22.497Z,19.50
2023-01-09T21:28:55.018Z,14.40
2023-01-09T21:31:33.368Z,16.65
2023-01-09T21:34:03.796Z,17.95
2023-01-09T21:36:32.085Z,17.80
2023-01-09T21:38:59.623Z,18.50
2023-01-09T21:41:45.755Z,19.23
2023-01-09T21:44:32.191Z,17.73
2023-01-09T21:47:01.712Z,17.67
2023-01-09T21:49:31.233Z,15.57
2023-01-09T21:51:58.731Z,15.00
2023-01-09T21:54:26.391Z,14.98
2023-01-09T21:56:54.703Z,17.60
2023-01-09T21:59:22.329Z,17.62
2023-01-09T22:01:49.799Z,15.73
2023-01-09T22:04:19.658Z,17.75
2023-01-09T22:06:47.163Z,13.73
2023-01-09T22:09:14.969Z,16.08
2023-01-09T22:11:45.747Z,15.30
2023-01-09T22:14:18.938Z,15.70
2023-01-09T22:16:47.895Z,13.80
2023-01-09T22:19:19.625Z,15.20
2023-01-09T22:21:48.695Z,13.70
2023-01-09T22:24:18.228Z,14.55
2023-01-09T22:26:45.829Z,11.85
2023-01-09T22:29:13.927Z,11.63
2023-01-09T22:31:43.008Z,13.00
2023-01-09T22:34:15.207Z,11.02
2023-01-09T22:36:43.821Z,11.23
2023-01-09T22:39:15.842Z,11.60
2023-01-09T22:41:43.532Z,11.90
2023-01-09T22:44:11.988Z,11.32
2023-01-09T22:46:39.731Z,12.73
2023-01-09T22:49:07.508Z,11.50
2023-01-09T22:51:34.904Z,11.05
2023-01-09T22:54:02.410Z,11.52
2023-01-09T22:56:32.123Z,12.57
2023-01-09T22:59:00.848Z,10.45
2023-01-09T23:01:28.222Z,10.73
2023-01-09T23:03:56.166Z,13.80
2023-01-09T23:06:25.197Z,16.55
2023-01-09T23:08:53.213Z,15.00
2023-01-09T23:11:43.562Z,13.73
2023-01-09T23:14:11.458Z,13.95
2023-01-09T23:16:39.464Z,12.70
2023-01-09T23:19:08.866Z,11.50
2023-01-09T23:21:36.670Z,12.88
2023-01-09T23:24:06.889Z,11.80
2023-01-09T23:26:35.239Z,13.15
2023-01-09T23:29:03.014Z,11.35
2023-01-09T23:31:30.700Z,11.05
2023-01-09T23:33:58.146Z,14.02
2023-01-09T23:36:25.552Z,11.80
2023-01-09T23:38:53.310Z,11.30
2023-01-09T23:41:22.449Z,11.75
2023-01-09T23:43:49.843Z,14.82
2023-01-09T23:46:17.523Z,11.18
2023-01-09T23:48:44.942Z,12.65
2023-01-09T23:51:12.279Z,10.93
2023-01-09T23:53:39.982Z,11.45
2023-01-09T23:56:07.456Z,12.32
2023-01-09T23:58:35.992Z,10.95
